Time;durP1;ratioP1;P1;durP2;ratioP2;P2;SDS_P1;SDS_P2;PMS_P1;PMS_P2;Temp;Humidity;BMP_temperature;BMP_pressure;BME280_temperature;BME280_humidity;BME280_pressure;Samples;Min_cycle;Max_cycle;Signal;HPM_P1;HPM_P2
2022/01/21 00:01:32;;;;;;;;;0.00;0.00;;;;;1.08;85.37;101311.13;5125708;27;8829;-63
2022/01/21 00:03:59;;;;;;;;;0.00;0.00;;;;;1.06;85.17;101307.69;5107936;28;8886;-63
2022/01/21 00:06:28;;;;;;;;;0.40;0.40;;;;;1.05;84.93;101321.66;5108566;28;8866;-61
2022/01/21 00:08:56;;;;;;;;;1.00;1.00;;;;;1.04;85.42;101339.19;5108128;28;8839;-63
2022/01/21 00:11:25;;;;;;;;;0.00;0.00;;;;;1.06;85.48;101341.78;5108599;28;8840;-63
2022/01/21 00:13:52;;;;;;;;;1.20;1.20;;;;;1.08;85.28;101338.22;5126831;27;8841;-60
2022/01/21 00:16:20;;;;;;;;;0.00;0.00;;;;;1.13;85.50;101346.88;5126267;27;9534;-63
2022/01/21 00:18:54;;;;;;;;;0.00;0.00;;;;;1.20;85.69;101342.34;5127030;27;8849;-63
2022/01/21 00:32:24;;;;;;;;;0.00;0.00;;;;;1.48;85.19;101343.53;5127084;27;8920;-63
2022/01/21 00:34:52;;;;;;;;;0.00;0.00;;;;;1.47;84.72;101357.56;5128390;27;8842;-61
2022/01/21 00:37:20;;;;;;;;;0.00;0.00;;;;;1.43;84.64;101369.88;5119029;28;8855;-63
2022/01/21 00:39:53;;;;;;;;;0.80;0.00;;;;;1.43;84.62;101372.50;5108454;28;8856;-62
2022/01/21 00:42:44;;;;;;;;;0.80;0.00;;;;;1.43;85.00;101356.75;5107898;28;8844;-61
2022/01/21 00:45:14;;;;;;;;;0.00;0.00;;;;;1.44;84.90;101363.72;5108866;28;8840;-63
2022/01/21 00:47:42;;;;;;;;;0.00;0.00;;;;;1.44;84.58;101365.50;5121416;27;8841;-62
2022/01/21 00:50:10;;;;;;;;;0.00;0.00;;;;;1.45;84.47;101370.69;5128687;27;8864;-63
2022/01/21 00:52:37;;;;;;;;;0.20;0.20;;;;;1.49;84.81;101379.38;5128324;27;8854;-63
2022/01/21 00:55:05;;;;;;;;;0.40;0.40;;;;;1.48;84.67;101372.41;5128764;27;9486;-60
2022/01/21 00:57:32;;;;;;;;;0.20;0.20;;;;;1.49;84.50;101361.88;5115635;28;8842;-62
2022/01/21 01:00:00;;;;;;;;;0.00;0.00;;;;;1.52;84.15;101348.69;5107883;28;8875;-63
2022/01/21 01:02:29;;;;;;;;;1.00;0.00;;;;;1.54;84.63;101359.16;5108217;28;8844;-63
2022/01/21 01:04:57;;;;;;;;;0.00;0.00;;;;;1.56;84.34;101373.13;5108236;28;8856;-63
2022/01/21 01:07:25;;;;;;;;;0.00;0.00;;;;;1.58;84.46;101377.44;5117492;27;8822;-62
2022/01/21 01:09:55;;;;;;;;;0.40;0.20;;;;;1.60;84.60;101374.81;5127896;27;8838;-62
2022/01/21 01:12:36;;;;;;;;;0.00;0.00;;;;;1.62;84.41;101373.88;5129186;27;8864;-62
2022/01/21 01:20:34;;;;;;;;;0.60;0.60;;;;;1.61;84.37;101372.13;5069270;28;9516;-62
2022/01/21 01:23:07;;;;;;;;;0.00;0.00;;;;;1.58;84.69;101374.81;5069744;28;8851;-63
2022/01/21 01:28:20;;;;;;;;;2.60;1.00;;;;;1.62;84.60;101381.75;5086808;28;8885;-61
2022/01/21 01:30:50;;;;;;;;;0.00;0.00;;;;;1.66;84.70;101374.69;5090265;28;8964;-62
2022/01/21 01:33:23;;;;;;;;;0.00;0.00;;;;;1.68;84.62;101373.72;5091174;28;8869;-63
2022/01/21 01:35:51;;;;;;;;;0.00;0.00;;;;;1.71;84.45;101368.44;5090179;28;8847;-63
2022/01/21 01:38:46;;;;;;;;;0.00;0.00;;;;;1.73;84.66;101382.38;5072351;28;8827;-62
2022/01/21 01:41:17;;;;;;;;;0.20;0.20;;;;;1.74;84.69;101376.22;5069428;28;8915;-64
2022/01/21 01:49:29;;;;;;;;;0.00;0.00;;;;;1.74;84.45;101365.72;5070114;28;8893;-63
2022/01/21 01:51:57;;;;;;;;;0.00;0.00;;;;;1.74;84.76;101357.00;5071054;28;8850;-65
2022/01/21 01:54:25;;;;;;;;;0.00;0.00;;;;;1.76;84.67;101361.28;5070625;28;8864;-65
2022/01/21 01:56:52;;;;;;;;;0.00;0.00;;;;;1.75;84.00;101356.94;5074441;28;8860;-63
2022/01/21 01:59:20;;;;;;;;;1.00;0.00;;;;;1.76;84.22;101361.28;5090718;28;9878;-63
2022/01/21 02:01:48;;;;;;;;;0.00;0.00;;;;;1.76;84.06;101358.69;5089826;28;9931;-63
2022/01/21 02:04:19;;;;;;;;;1.00;0.00;;;;;1.77;84.08;101356.94;5091029;28;8979;-61
2022/01/21 02:06:48;;;;;;;;;0.00;0.00;;;;;1.76;84.72;101356.06;5086873;28;8931;-63
2022/01/21 02:09:15;;;;;;;;;1.00;1.00;;;;;1.75;84.44;101354.31;5069647;28;8846;-63
2022/01/21 02:11:43;;;;;;;;;0.00;0.00;;;;;1.68;83.99;101339.59;5071904;28;8839;-61
2022/01/21 02:14:15;;;;;;;;;0.00;0.00;;;;;1.62;85.05;101350.25;5069222;28;8858;-63
2022/01/21 02:17:07;;;;;;;;;0.00;0.00;;;;;1.54;85.05;101346.94;5073606;28;8854;-63
2022/01/21 02:22:18;;;;;;;;;0.40;0.40;;;;;1.44;84.93;101348.00;5130883;27;8868;-62
2022/01/21 02:24:50;;;;;;;;;0.00;0.00;;;;;1.40;85.37;101354.22;5130769;27;8884;-62
2022/01/21 02:27:18;;;;;;;;;2.40;0.80;;;;;1.37;84.85;101358.66;5122773;27;9589;-62
2022/01/21 02:29:48;;;;;;;;;0.00;0.00;;;;;1.35;84.91;101363.03;5110855;28;9509;-62
2022/01/21 02:32:15;;;;;;;;;0.00;0.00;;;;;1.33;85.09;101360.47;5110889;28;9485;-63
2022/01/21 02:34:43;;;;;;;;;1.00;1.00;;;;;1.34;85.10;101364.81;5109953;28;8914;-63
2022/01/21 02:37:12;;;;;;;;;0.80;0.80;;;;;1.35;85.17;101371.78;5115540;27;8955;-62
2022/01/21 02:39:40;;;;;;;;;0.00;0.00;;;;;1.36;85.46;101373.53;5129644;27;8976;-63
2022/01/21 02:42:07;;;;;;;;;0.00;0.00;;;;;1.42;85.33;101375.16;5130562;27;8846;-61
2022/01/21 02:44:35;;;;;;;;;0.00;0.00;;;;;1.45;84.90;101378.56;5129585;27;8848;-62
2022/01/21 02:47:04;;;;;;;;;0.00;0.00;;;;;1.48;85.24;101375.91;5124547;27;9667;-63
2022/01/21 02:49:32;;;;;;;;;0.00;0.00;;;;;1.50;85.23;101384.59;5109894;28;8858;-63
2022/01/21 02:52:01;;;;;;;;;0.00;0.00;;;;;1.53;84.92;101379.28;5109780;28;8881;-63
2022/01/21 02:54:30;;;;;;;;;0.00;0.00;;;;;1.54;84.76;101377.53;5110357;28;8960;-63
2022/01/21 02:56:58;;;;;;;;;0.00;0.00;;;;;1.53;84.73;101383.69;5112905;27;8956;-68
2022/01/21 02:59:25;;;;;;;;;0.40;0.40;;;;;1.53;84.80;101383.69;5130712;27;8865;-61
2022/01/21 03:01:53;;;;;;;;;1.00;0.00;;;;;1.54;85.21;101372.28;5130696;27;8838;-63
2022/01/21 03:04:28;;;;;;;;;0.20;0.20;;;;;1.54;84.85;101377.53;5130871;27;8858;-63
2022/01/21 03:06:56;;;;;;;;;0.00;0.00;;;;;1.55;84.45;101371.41;5126617;27;8846;-63
2022/01/21 03:09:24;;;;;;;;;1.20;0.40;;;;;1.57;84.54;101369.59;5108491;28;8828;-63
2022/01/21 03:11:52;;;;;;;;;0.00;0.00;;;;;1.58;84.75;101376.56;5109428;28;8855;-63
2022/01/21 03:14:20;;;;;;;;;0.40;0.40;;;;;1.59;85.13;101381.78;5110113;28;8847;-60
2022/01/21 03:16:47;;;;;;;;;0.80;0.80;;;;;1.63;84.66;101379.97;5109465;27;8861;-63
2022/01/21 03:19:15;;;;;;;;;0.40;0.00;;;;;1.65;84.97;101380.78;5129535;27;8848;-63
2022/01/21 03:21:43;;;;;;;;;0.00;0.00;;;;;1.67;85.11;101390.38;5129477;27;8837;-61
2022/01/21 03:24:11;;;;;;;;;0.00;0.00;;;;;1.69;84.80;101385.09;5129902;27;8841;-62
2022/01/21 03:26:38;;;;;;;;;1.00;1.00;;;;;1.68;85.00;101363.22;5129212;27;8833;-61
2022/01/21 03:29:06;;;;;;;;;0.00;0.00;;;;;1.69;84.83;101364.97;5128811;27;8838;-63
2022/01/21 03:31:34;;;;;;;;;0.80;0.00;;;;;1.70;84.82;101377.22;5127832;27;9005;-62
2022/01/21 03:34:02;;;;;;;;;1.00;1.00;;;;;1.71;84.69;101381.56;5127683;27;8899;-63
2022/01/21 03:36:30;;;;;;;;;1.00;1.00;;;;;1.73;84.97;101381.50;5128971;27;8849;-62
2022/01/21 03:38:57;;;;;;;;;0.00;0.00;;;;;1.75;84.93;101379.72;5109677;28;8828;-63
2022/01/21 03:41:25;;;;;;;;;0.40;0.40;;;;;1.78;84.55;101384.91;5106936;28;8852;-63
2022/01/21 03:43:53;;;;;;;;;0.80;0.80;;;;;1.78;84.61;101395.41;5108426;28;8832;-63
2022/01/21 03:46:21;;;;;;;;;0.60;0.60;;;;;1.79;84.75;101403.25;5108360;28;8884;-63
2022/01/21 03:48:50;;;;;;;;;2.40;0.80;;;;;1.83;84.32;101409.31;5124156;27;8847;-61
2022/01/21 03:51:18;;;;;;;;;1.00;1.00;;;;;1.85;84.53;101394.38;5127090;27;8841;-65
2022/01/21 03:53:46;;;;;;;;;0.00;0.00;;;;;1.87;84.65;101389.94;5128177;27;8846;-63
2022/01/21 03:56:14;;;;;;;;;0.20;0.00;;;;;1.87;84.27;101382.97;5129242;27;9538;-63
2022/01/21 03:58:41;;;;;;;;;0.00;0.00;;;;;1.89;84.50;101394.28;5111952;27;8864;-63
2022/01/21 04:01:09;;;;;;;;;0.00;0.00;;;;;1.90;84.38;101384.66;5108812;28;8901;-63
2022/01/21 04:03:37;;;;;;;;;0.00;0.00;;;;;1.91;84.42;101381.97;5108736;28;8840;-64
2022/01/21 04:06:06;;;;;;;;;0.00;0.00;;;;;1.92;84.57;101383.72;5107097;28;8850;-63
2022/01/21 04:08:34;;;;;;;;;0.80;0.80;;;;;1.92;84.24;101383.72;5122339;27;8849;-63
2022/01/21 04:11:01;;;;;;;;;1.80;1.40;;;;;1.92;84.49;101374.97;5128783;27;8849;-64
2022/01/21 04:13:29;;;;;;;;;1.00;1.00;;;;;1.95;84.85;101378.41;5129429;27;9897;-63
2022/01/21 04:15:57;;;;;;;;;0.00;0.00;;;;;1.96;84.96;101384.53;5129149;27;8830;-63
2022/01/21 04:18:25;;;;;;;;;1.00;1.00;;;;;1.97;84.74;101389.72;5114981;27;8874;-63
2022/01/21 04:20:53;;;;;;;;;0.20;0.20;;;;;1.99;84.83;101395.81;5108337;28;8847;-63
2022/01/21 04:23:21;;;;;;;;;0.00;0.00;;;;;2.00;84.45;101391.44;5107655;28;8866;-64
2022/01/21 04:25:52;;;;;;;;;0.80;0.80;;;;;2.03;84.89;101394.84;5107770;28;8836;-64
2022/01/21 04:28:19;;;;;;;;;1.40;1.40;;;;;2.02;84.44;101393.13;5120352;27;8906;-63
2022/01/21 04:30:47;;;;;;;;;0.00;0.00;;;;;2.05;84.94;101389.56;5130362;27;8880;-64
2022/01/21 04:33:15;;;;;;;;;2.20;0.80;;;;;2.05;84.78;101387.78;5128267;27;9518;-64
2022/01/21 04:35:43;;;;;;;;;0.00;0.00;;;;;2.06;84.76;101386.91;5129323;27;8867;-62
2022/01/21 04:38:13;;;;;;;;;3.60;2.00;;;;;2.04;84.85;101383.44;5117777;28;9484;-64
2022/01/21 04:40:47;;;;;;;;;0.80;0.80;;;;;2.03;84.20;101375.59;5105475;28;8844;-63
2022/01/21 04:48:45;;;;;;;;;0.00;0.00;;;;;1.94;84.85;101383.69;5112785;27;8839;-63
2022/01/21 04:51:15;;;;;;;;;1.00;1.00;;;;;1.90;84.90;101380.25;5112645;28;8852;-67
2022/01/21 04:53:43;;;;;;;;;0.00;0.00;;;;;1.86;84.77;101377.72;5112618;28;8868;-63
2022/01/21 04:56:11;;;;;;;;;0.00;0.00;;;;;1.84;84.61;101375.16;5110792;28;8861;-63
2022/01/21 04:58:38;;;;;;;;;1.00;1.00;;;;;1.82;85.36;101382.19;5127140;27;8848;-63
2022/01/21 05:01:06;;;;;;;;;0.00;0.00;;;;;1.82;84.76;101389.22;5132225;27;8842;-63
2022/01/21 05:03:34;;;;;;;;;0.00;0.00;;;;;1.82;85.29;101392.69;5133128;27;8830;-63
2022/01/21 05:06:02;;;;;;;;;1.00;1.00;;;;;1.84;84.92;101390.91;5126265;27;9830;-64
2022/01/21 05:08:38;;;;;;;;;0.00;0.00;;;;;1.85;84.82;101397.88;5111752;28;8851;-64
2022/01/21 05:11:06;;;;;;;;;0.60;0.20;;;;;1.88;85.45;101387.31;5110783;28;8843;-62
2022/01/21 05:13:39;;;;;;;;;0.80;0.80;;;;;1.90;85.32;101401.25;5110682;28;9496;-63
2022/01/21 05:16:10;;;;;;;;;1.00;1.00;;;;;1.92;84.63;101395.97;5116314;27;8818;-63
2022/01/21 05:18:38;;;;;;;;;0.60;0.60;;;;;1.95;84.90;101404.66;5129746;27;8870;-64
2022/01/21 05:21:06;;;;;;;;;0.60;0.60;;;;;1.97;85.18;101402.84;5130485;27;8888;-64
2022/01/21 05:23:34;;;;;;;;;0.00;0.00;;;;;1.99;84.74;101411.56;5131507;27;8980;-62
2022/01/21 05:26:01;;;;;;;;;1.00;0.60;;;;;2.00;84.46;101400.19;5126310;27;8828;-67
2022/01/21 05:28:29;;;;;;;;;0.20;0.00;;;;;2.01;84.94;101398.41;5110673;28;8832;-64
2022/01/21 05:30:57;;;;;;;;;3.00;2.20;;;;;2.03;84.60;101404.47;5110493;28;9503;-64
2022/01/21 05:33:24;;;;;;;;;2.20;2.00;;;;;2.03;84.87;101408.00;5111943;28;8856;-64
2022/01/21 05:35:52;;;;;;;;;0.80;0.40;;;;;2.04;84.86;101401.00;5114337;27;9477;-64
2022/01/21 05:38:20;;;;;;;;;1.40;1.40;;;;;2.07;85.00;101401.78;5130743;27;8841;-64
2022/01/21 05:40:48;;;;;;;;;2.20;2.20;;;;;2.07;85.04;101399.16;5130111;27;8846;-64
2022/01/21 05:43:15;;;;;;;;;1.00;1.00;;;;;2.07;84.44;101399.16;5129688;27;8837;-66
2022/01/21 05:48:29;;;;;;;;;2.20;2.20;;;;;2.09;84.50;101393.84;5109334;28;8940;-61
2022/01/21 05:50:56;;;;;;;;;3.20;1.40;;;;;2.10;84.81;101395.56;5117896;27;8825;-64
2022/01/21 05:53:24;;;;;;;;;1.00;1.00;;;;;2.11;84.46;101410.47;5124325;27;8842;-63
2022/01/21 05:55:54;;;;;;;;;0.60;0.60;;;;;2.12;85.14;101415.66;5126497;27;8849;-63
2022/01/21 05:58:21;;;;;;;;;1.00;1.00;;;;;2.12;85.48;101415.66;5105950;28;8885;-63
2022/01/21 06:00:49;;;;;;;;;0.00;0.00;;;;;2.14;85.19;101408.59;5106478;28;8881;-63
2022/01/21 06:03:17;;;;;;;;;0.80;0.80;;;;;2.15;84.65;101401.59;5103790;28;8850;-63
2022/01/21 06:05:50;;;;;;;;;3.00;3.00;;;;;2.14;84.53;101400.72;5102867;28;8859;-64
2022/01/21 06:08:18;;;;;;;;;1.00;1.00;;;;;2.15;85.06;101412.09;5102919;28;9080;-62
2022/01/21 06:10:45;;;;;;;;;1.00;1.00;;;;;2.14;85.03;101405.97;5102045;28;8844;-61
2022/01/21 06:13:15;;;;;;;;;3.60;2.60;;;;;2.14;85.24;101405.13;5103852;28;9587;-64
2022/01/21 06:15:43;;;;;;;;;1.40;1.40;;;;;2.15;84.72;101413.00;5102417;28;8868;-62
2022/01/21 06:18:11;;;;;;;;;3.80;3.80;;;;;2.15;85.34;101402.47;5104423;28;8836;-63
2022/01/21 06:20:39;;;;;;;;;1.80;1.80;;;;;2.15;85.31;101413.00;5103278;28;8862;-64
2022/01/21 06:23:06;;;;;;;;;3.80;3.80;;;;;2.15;84.96;101405.09;5103115;28;8852;-62
2022/01/21 06:25:34;;;;;;;;;3.60;3.60;;;;;2.16;84.98;101419.97;5103332;28;8860;-61
2022/01/21 06:28:02;;;;;;;;;3.40;3.00;;;;;2.17;85.58;101418.19;5103118;28;8840;-60
2022/01/21 06:30:29;;;;;;;;;1.00;1.00;;;;;2.16;85.14;101427.84;5099890;28;8882;-63
2022/01/21 06:32:57;;;;;;;;;4.80;4.80;;;;;2.16;85.19;101433.09;5100500;28;8878;-61
2022/01/21 06:35:25;;;;;;;;;3.00;3.00;;;;;2.17;84.80;101441.81;5098990;28;8882;-62
2022/01/21 06:37:54;;;;;;;;;3.00;3.00;;;;;2.18;85.10;101443.56;5100795;28;8848;-63
2022/01/21 06:40:22;;;;;;;;;3.40;3.00;;;;;2.18;85.16;101438.31;5097195;28;8847;-63
2022/01/21 06:42:50;;;;;;;;;1.40;1.00;;;;;2.18;84.51;101433.91;5099250;28;8847;-63
2022/01/21 06:45:17;;;;;;;;;3.00;3.00;;;;;2.18;85.52;101433.03;5099902;28;8851;-62
2022/01/21 06:47:46;;;;;;;;;1.00;1.00;;;;;2.18;85.16;101438.31;5096828;28;8831;-62
2022/01/21 06:50:14;;;;;;;;;3.00;3.00;;;;;2.14;84.77;101432.25;5096532;28;9969;-63
2022/01/21 06:52:41;;;;;;;;;3.60;3.60;;;;;2.10;84.91;101433.22;5097225;28;8863;-64
2022/01/21 06:55:09;;;;;;;;;1.80;1.80;;;;;2.08;85.17;101435.03;5096955;28;9618;-63
2022/01/21 06:57:39;;;;;;;;;2.60;2.60;;;;;2.08;84.82;101442.03;5098783;28;8867;-63
2022/01/21 07:00:06;;;;;;;;;2.20;2.20;;;;;2.07;85.19;101446.44;5097198;28;8855;-62
2022/01/21 07:02:34;;;;;;;;;2.20;2.20;;;;;2.09;85.32;101449.88;5097970;28;8864;-63
2022/01/21 07:05:02;;;;;;;;;3.00;3.00;;;;;2.12;85.15;101454.22;5098628;28;9171;-63
2022/01/21 07:07:30;;;;;;;;;2.60;1.40;;;;;2.14;84.83;101455.03;5098667;28;9205;-61
2022/01/21 07:09:57;;;;;;;;;3.00;3.00;;;;;2.16;85.44;101456.75;5097852;28;8917;-63
2022/01/21 07:12:25;;;;;;;;;1.00;1.00;;;;;2.20;84.96;101458.38;5095377;28;8882;-62
2022/01/21 07:14:53;;;;;;;;;0.40;0.00;;;;;2.19;85.26;101451.41;5093047;28;9304;-64
2022/01/21 07:17:20;;;;;;;;;4.00;4.00;;;;;2.19;85.53;101440.06;5097047;28;8852;-63
2022/01/21 07:19:52;;;;;;;;;1.00;1.00;;;;;2.15;85.66;101444.50;5096289;28;8932;-64
2022/01/21 07:22:20;;;;;;;;;1.40;1.40;;;;;2.16;85.45;101443.59;5098138;28;8855;-62
2022/01/21 07:24:47;;;;;;;;;1.00;1.00;;;;;2.18;85.53;101452.31;5098121;28;8867;-62
2022/01/21 07:27:15;;;;;;;;;0.60;0.60;;;;;2.20;85.27;101458.38;5097598;28;9568;-61
2022/01/21 07:29:43;;;;;;;;;2.20;2.20;;;;;2.22;85.38;101451.38;5095699;28;9194;-64
2022/01/21 07:32:10;;;;;;;;;1.00;1.00;;;;;2.23;85.00;101463.59;5097539;28;8933;-61
2022/01/21 07:34:39;;;;;;;;;1.00;0.80;;;;;2.24;85.02;101467.94;5096215;28;8859;-64
2022/01/21 07:37:10;;;;;;;;;1.80;1.80;;;;;2.26;84.91;101470.56;5096292;28;8859;-62
2022/01/21 07:39:38;;;;;;;;;1.00;1.00;;;;;2.28;84.94;101469.59;5098198;28;8820;-62
2022/01/21 07:42:06;;;;;;;;;0.80;0.80;;;;;2.31;85.48;101485.31;5099996;28;9536;-64
2022/01/21 07:44:33;;;;;;;;;1.00;1.00;;;;;2.35;85.27;101480.88;5095869;28;9171;-64
2022/01/21 07:47:01;;;;;;;;;1.40;1.40;;;;;2.36;85.06;101491.31;5093158;28;9715;-63
2022/01/21 07:49:29;;;;;;;;;0.60;0.00;;;;;2.38;84.85;101484.28;5095917;28;8824;-63
2022/01/21 07:51:57;;;;;;;;;1.80;1.80;;;;;2.39;84.82;101491.28;5096410;28;8852;-62
2022/01/21 07:54:25;;;;;;;;;1.00;1.00;;;;;2.42;85.07;101491.19;5093638;28;8899;-64
2022/01/21 07:56:53;;;;;;;;;3.80;3.40;;;;;2.43;85.24;101487.66;5093395;28;8859;-62
2022/01/21 07:59:20;;;;;;;;;3.00;3.00;;;;;2.46;85.49;101481.47;5097306;28;8897;-63
2022/01/21 08:01:48;;;;;;;;;3.00;3.00;;;;;2.47;84.95;101476.19;5095386;28;8877;-63
2022/01/21 08:04:16;;;;;;;;;0.60;0.60;;;;;2.49;85.27;101477.03;5094972;28;8851;-61
2022/01/21 08:06:44;;;;;;;;;4.00;4.00;;;;;2.50;84.84;101481.38;5096846;28;8886;-63
2022/01/21 08:09:11;;;;;;;;;1.00;1.00;;;;;2.53;84.83;101485.69;5094688;28;8840;-63
2022/01/21 08:11:39;;;;;;;;;2.20;1.80;;;;;2.54;84.71;101469.91;5094541;28;8843;-64
2022/01/21 08:14:07;;;;;;;;;3.00;3.00;;;;;2.57;85.11;101469.81;5094111;28;8840;-63
2022/01/21 08:16:40;;;;;;;;;1.00;0.20;;;;;2.62;84.64;101472.34;5096621;28;8860;-63
2022/01/21 08:19:08;;;;;;;;;1.00;1.00;;;;;2.64;84.84;101470.56;5093408;28;8974;-63
2022/01/21 08:21:35;;;;;;;;;1.40;1.40;;;;;2.67;84.89;101467.84;5091496;28;8955;-64
2022/01/21 08:24:06;;;;;;;;;1.00;1.00;;;;;2.69;84.60;101468.66;5093411;28;8844;-63
2022/01/21 08:26:33;;;;;;;;;3.00;3.00;;;;;2.73;84.86;101471.19;5094595;28;8836;-61
2022/01/21 08:29:02;;;;;;;;;0.20;0.20;;;;;2.77;84.65;101467.59;5092418;28;9528;-64
2022/01/21 08:31:30;;;;;;;;;1.00;1.00;;;;;2.81;84.64;101476.28;5093945;28;9878;-64
2022/01/21 08:33:58;;;;;;;;;0.00;0.00;;;;;2.84;84.24;101484.97;5095984;28;8874;-62
2022/01/21 08:36:25;;;;;;;;;1.00;1.00;;;;;2.85;85.24;101475.28;5097192;28;8868;-61
2022/01/21 08:38:53;;;;;;;;;1.40;1.40;;;;;2.84;84.57;101482.34;5095428;28;9144;-63
2022/01/21 08:41:21;;;;;;;;;3.60;3.00;;;;;2.85;84.25;101485.81;5092250;28;8859;-62
2022/01/21 08:43:48;;;;;;;;;2.80;2.60;;;;;2.85;84.40;101485.81;5094855;28;8840;-61
2022/01/21 08:46:17;;;;;;;;;6.00;4.00;;;;;2.84;84.38;101484.97;5096084;28;8840;-63
2022/01/21 08:48:45;;;;;;;;;5.60;4.40;;;;;2.85;84.70;101491.06;5088367;28;8851;-62
2022/01/21 08:51:19;;;;;;;;;6.80;5.60;;;;;2.89;84.43;101498.84;5091972;28;8851;-63
2022/01/21 08:53:46;;;;;;;;;2.60;2.60;;;;;2.92;84.53;101487.41;5094400;28;8851;-63
2022/01/21 08:56:14;;;;;;;;;3.20;3.20;;;;;2.94;84.55;101489.09;5094977;28;9143;-61
2022/01/21 08:58:41;;;;;;;;;3.60;3.00;;;;;2.96;84.28;101487.28;5097699;28;8836;-63
2022/01/21 09:01:09;;;;;;;;;4.00;4.00;;;;;3.00;84.41;101493.34;5094246;28;8855;-63
2022/01/21 09:03:39;;;;;;;;;3.00;3.00;;;;;3.01;84.53;101497.69;5093273;28;8848;-63
2022/01/21 09:06:07;;;;;;;;;3.80;3.60;;;;;3.00;84.86;101496.84;5095061;28;8846;-64
2022/01/21 09:08:34;;;;;;;;;4.40;4.00;;;;;3.02;84.27;101481.88;5092840;28;9198;-63
2022/01/21 09:11:02;;;;;;;;;1.60;0.40;;;;;3.02;84.93;101479.25;5093522;28;9133;-62
2022/01/21 09:13:31;;;;;;;;;0.20;0.20;;;;;3.03;84.64;101480.97;5091975;28;8954;-61
2022/01/21 09:16:01;;;;;;;;;1.80;1.80;;;;;3.07;84.46;101482.66;5094619;28;8867;-61
2022/01/21 09:18:34;;;;;;;;;3.80;3.00;;;;;3.11;83.95;101486.06;5094401;28;9552;-63
2022/01/21 09:21:21;;;;;;;;;4.00;3.80;;;;;3.18;84.60;101482.38;5093373;28;8855;-63
2022/01/21 09:23:49;;;;;;;;;7.80;6.60;;;;;3.26;84.06;101491.78;5093465;28;8855;-63
2022/01/21 09:26:17;;;;;;;;;4.20;4.20;;;;;3.30;84.18;101485.56;5094641;28;8966;-63
2022/01/21 09:28:49;;;;;;;;;5.80;5.20;;;;;3.34;84.32;101489.84;5093667;28;9086;-63
2022/01/21 09:31:16;;;;;;;;;5.60;5.20;;;;;3.39;83.69;101487.97;5094731;28;8890;-60
2022/01/21 09:33:44;;;;;;;;;4.80;4.00;;;;;3.42;84.18;101482.59;5094421;28;8894;-62
2022/01/21 09:36:12;;;;;;;;;4.00;3.00;;;;;3.48;83.84;101469.28;5099063;28;9715;-64
2022/01/21 09:38:39;;;;;;;;;2.60;2.60;;;;;3.57;84.12;101484.84;5097677;28;8847;-63
2022/01/21 09:41:07;;;;;;;;;6.00;6.00;;;;;3.68;83.74;101482.78;5097934;28;9395;-62
2022/01/21 09:43:37;;;;;;;;;4.00;4.00;;;;;3.75;83.11;101481.72;5097037;28;8862;-63
2022/01/21 09:46:07;;;;;;;;;4.60;3.40;;;;;3.78;83.39;101478.16;5096203;28;8851;-62
2022/01/21 09:48:50;;;;;;;;;3.00;3.00;;;;;3.82;83.42;101483.28;5093702;28;8844;-62
2022/01/21 09:51:18;;;;;;;;;3.60;3.60;;;;;3.89;82.95;101480.41;5098138;28;8840;-63
2022/01/21 09:53:45;;;;;;;;;4.00;4.00;;;;;3.94;82.88;101480.28;5098634;28;8840;-62
2022/01/21 09:56:14;;;;;;;;;4.00;4.00;;;;;4.02;83.40;101486.22;5098070;28;9693;-63
2022/01/21 09:58:42;;;;;;;;;4.60;4.60;;;;;4.10;83.21;101485.09;5098132;28;8966;-63
2022/01/21 10:01:12;;;;;;;;;3.00;3.00;;;;;4.21;82.41;101480.41;5098083;28;8962;-61
2022/01/21 10:03:40;;;;;;;;;1.00;1.00;;;;;4.30;83.07;101480.13;5099164;28;8848;-63
2022/01/21 10:06:07;;;;;;;;;3.40;3.00;;;;;4.36;82.33;101485.22;5096945;28;9516;-63
2022/01/21 10:08:35;;;;;;;;;4.80;4.00;;;;;4.38;82.72;101483.38;5096781;28;8847;-64
2022/01/21 10:11:03;;;;;;;;;4.00;3.20;;;;;4.48;82.45;101489.25;5098132;28;9007;-63
2022/01/21 10:13:32;;;;;;;;;4.00;4.00;;;;;4.56;82.85;101489.88;5094082;28;8855;-62
2022/01/21 10:15:59;;;;;;;;;4.20;4.20;;;;;4.60;82.00;101494.13;5098893;28;8852;-61
2022/01/21 10:18:27;;;;;;;;;6.20;4.00;;;;;4.57;82.37;101500.38;5092920;28;8870;-63
2022/01/21 10:20:55;;;;;;;;;4.00;3.40;;;;;4.59;82.60;101502.97;5093888;28;9186;-62
2022/01/21 10:23:23;;;;;;;;;5.20;4.40;;;;;4.58;82.37;101507.38;5095679;28;8865;-61
2022/01/21 10:25:50;;;;;;;;;3.80;3.80;;;;;4.57;82.38;101510.06;5092883;28;8844;-61
2022/01/21 10:28:19;;;;;;;;;10.60;7.00;;;;;4.48;82.43;101513.00;5093549;28;8844;-62
2022/01/21 10:30:46;;;;;;;;;1.40;1.40;;;;;4.38;82.06;101509.75;5094656;28;8948;-63
2022/01/21 10:33:14;;;;;;;;;7.20;4.00;;;;;4.38;82.40;101498.31;5095834;28;8851;-63
2022/01/21 10:35:46;;;;;;;;;6.80;6.80;;;;;4.44;82.67;101500.78;5095886;28;9069;-62
2022/01/21 10:38:14;;;;;;;;;4.00;4.00;;;;;4.52;82.86;101501.41;5092952;28;8864;-61
2022/01/21 10:40:42;;;;;;;;;5.60;5.60;;;;;4.53;82.66;101504.03;5096024;28;9136;-63
2022/01/21 10:43:09;;;;;;;;;3.80;3.40;;;;;4.54;82.64;101494.31;5098100;28;8852;-63
2022/01/21 10:45:37;;;;;;;;;3.00;3.00;;;;;4.50;82.47;101500.63;5093055;28;9532;-63
2022/01/21 10:48:05;;;;;;;;;6.60;5.60;;;;;4.48;82.80;101498.00;5094612;28;9105;-60
2022/01/21 10:50:33;;;;;;;;;6.20;5.60;;;;;4.44;82.93;101491.13;5096341;28;8855;-63
2022/01/21 10:53:01;;;;;;;;;4.00;4.00;;;;;4.38;82.53;101495.69;5095436;28;8878;-63
2022/01/21 10:55:28;;;;;;;;;5.60;3.40;;;;;4.55;82.73;101490.75;5094888;28;8844;-63
2022/01/21 10:57:58;;;;;;;;;6.80;4.40;;;;;5.02;81.58;101483.09;5093892;28;8928;-63
2022/01/21 11:00:26;;;;;;;;;3.00;3.00;;;;;5.42;80.96;101487.94;5095040;28;9113;-62
2022/01/21 11:02:54;;;;;;;;;5.60;5.60;;;;;5.55;80.71;101486.59;5095709;28;8860;-63
2022/01/21 11:05:26;;;;;;;;;3.20;3.20;;;;;5.57;80.69;101482.13;5093122;28;8847;-63
2022/01/21 11:07:57;;;;;;;;;4.80;4.80;;;;;5.49;80.38;101487.69;5092440;28;8905;-61
2022/01/21 11:10:25;;;;;;;;;4.40;4.00;;;;;5.46;80.50;101479.84;5092473;28;8944;-63
2022/01/21 11:12:53;;;;;;;;;7.00;7.00;;;;;5.46;80.97;101479.00;5096599;28;8877;-61
2022/01/21 11:15:25;;;;;;;;;3.40;3.40;;;;;5.44;80.83;101473.75;5092712;28;8847;-62
2022/01/21 11:17:53;;;;;;;;;4.80;4.80;;;;;5.46;80.69;101473.72;5090418;28;8860;-64
2022/01/21 11:20:25;;;;;;;;;4.00;4.00;;;;;5.53;81.38;101460.22;5092571;28;8852;-60
2022/01/21 11:22:52;;;;;;;;;6.40;6.40;;;;;5.61;80.82;101467.91;5096469;28;9145;-61
2022/01/21 11:25:20;;;;;;;;;6.00;4.00;;;;;5.63;80.68;101461.63;5097132;28;8858;-63
2022/01/21 11:27:48;;;;;;;;;6.00;4.00;;;;;5.63;80.87;101466.91;5095435;28;9090;-62
2022/01/21 11:30:16;;;;;;;;;4.40;4.40;;;;;5.65;80.87;101467.72;5091317;28;8856;-61
2022/01/21 11:32:43;;;;;;;;;4.00;4.00;;;;;5.68;80.70;101466.75;5093933;28;8917;-61
2022/01/21 11:35:11;;;;;;;;;7.00;6.00;;;;;5.70;80.80;101462.28;5093305;28;8960;-63
2022/01/21 11:37:39;;;;;;;;;6.00;6.00;;;;;5.72;80.43;101460.44;5093759;28;9002;-62
2022/01/21 11:40:07;;;;;;;;;4.00;4.00;;;;;5.75;81.32;101449.75;5075643;28;8848;-63
2022/01/21 11:42:34;;;;;;;;;3.80;3.80;;;;;5.83;80.67;101459.16;5093977;28;8840;-62
2022/01/21 11:45:18;;;;;;;;;3.00;3.00;;;;;5.95;80.09;101452.56;5092664;28;9151;-63
2022/01/21 11:48:49;;;;;;;;;4.80;4.00;;;;;6.02;80.10;101462.00;5090323;28;9517;-63
2022/01/21 11:50:48;;;;;;;;;8.60;8.20;;;;;5.99;80.33;101464.78;5096404;28;8889;-61
2022/01/21 11:53:16;;;;;;;;;5.60;5.20;;;;;5.96;80.51;101459.59;5094048;28;8851;-61
2022/01/21 11:55:45;;;;;;;;;9.00;9.00;;;;;5.96;80.67;101464.88;5093836;28;8852;-62
2022/01/21 11:58:13;;;;;;;;;3.80;3.80;;;;;5.97;80.31;101456.00;5093060;28;8856;-62
2022/01/21 12:00:41;;;;;;;;;0.80;0.80;;;;;6.06;80.34;101450.41;5095593;28;8844;-61
2022/01/21 12:03:09;;;;;;;;;4.00;4.00;;;;;6.12;80.67;101451.03;5095784;28;9004;-61
2022/01/21 12:05:37;;;;;;;;;4.00;4.00;;;;;6.11;80.16;101453.72;5091355;28;8847;-63
2022/01/21 12:08:05;;;;;;;;;3.20;3.20;;;;;6.10;79.64;101436.16;5095061;28;9154;-63
2022/01/21 12:10:33;;;;;;;;;8.40;6.60;;;;;6.17;80.16;101438.53;5095938;28;8836;-61
2022/01/21 12:13:02;;;;;;;;;1.00;1.00;;;;;6.30;80.25;101438.91;5094726;28;9002;-63
2022/01/21 12:15:36;;;;;;;;;3.00;2.20;;;;;6.40;79.73;101432.31;5095612;28;9020;-63
2022/01/21 12:18:04;;;;;;;;;1.80;1.00;;;;;6.41;79.63;101440.22;5095693;28;8872;-62
2022/01/21 12:20:31;;;;;;;;;3.00;3.00;;;;;6.42;79.62;101441.06;5096897;28;8859;-63
2022/01/21 12:22:59;;;;;;;;;6.20;3.80;;;;;6.40;79.76;101440.28;5099171;28;8850;-64
2022/01/21 12:25:27;;;;;;;;;4.80;4.40;;;;;6.33;80.01;101438.78;5095412;28;8916;-64